createdAt,value
2022-11-18T00:01:34.797Z,83.24
2022-11-18T00:04:01.286Z,83.14
2022-11-18T00:06:29.282Z,83.18
2022-11-18T00:08:56.420Z,82.96
2022-11-18T00:11:57.178Z,82.67
2022-11-18T00:14:27.352Z,82.62
2022-11-18T00:16:56.906Z,81.29
2022-11-18T00:19:28.925Z,81.19
2022-11-18T00:21:55.516Z,81.30
2022-11-18T00:24:22.087Z,81.39
2022-11-18T00:26:48.804Z,81.92
2022-11-18T00:29:16.142Z,81.79
2022-11-18T00:31:43.187Z,81.89
2022-11-18T00:34:13.225Z,80.98
2022-11-18T00:36:40.584Z,79.92
2022-11-18T00:39:07.111Z,80.09
2022-11-18T00:41:52.197Z,80.44
2022-11-18T00:44:18.619Z,80.19
2022-11-18T00:46:45.253Z,80.37
2022-11-18T00:49:11.695Z,80.64
2022-11-18T00:51:38.143Z,81.23
2022-11-18T00:54:04.691Z,82.04
2022-11-18T00:56:31.360Z,81.51
2022-11-18T00:58:57.945Z,81.63
2022-11-18T01:01:24.721Z,82.01
2022-11-18T01:03:51.226Z,82.00
2022-11-18T01:06:17.877Z,82.74
2022-11-18T01:08:44.610Z,82.60
2022-11-18T01:11:30.039Z,82.40
2022-11-18T01:13:56.464Z,82.42
2022-11-18T01:16:25.092Z,82.28
2022-11-18T01:18:51.556Z,81.88
2022-11-18T01:21:18.098Z,82.07
2022-11-18T01:23:45.022Z,82.97
2022-11-18T01:26:13.646Z,83.00
2022-11-18T01:28:40.250Z,83.34
2022-11-18T01:31:14.623Z,83.01
2022-11-18T01:33:41.819Z,82.76
2022-11-18T01:36:22.975Z,83.10
2022-11-18T01:38:50.019Z,83.38
2022-11-18T01:41:17.115Z,83.56
2022-11-18T01:43:58.807Z,83.36
2022-11-18T01:46:30.344Z,83.51
2022-11-18T01:49:08.378Z,84.14
2022-11-18T01:51:39.328Z,84.22
2022-11-18T01:54:08.784Z,83.92
2022-11-18T01:56:40.244Z,83.58
2022-11-18T01:59:09.622Z,83.71
2022-11-18T02:01:36.196Z,83.32
2022-11-18T02:04:02.711Z,84.04
2022-11-18T02:06:29.142Z,83.76
2022-11-18T02:08:56.523Z,83.72
2022-11-18T02:11:42.060Z,83.62
2022-11-18T02:14:09.857Z,83.48
2022-11-18T02:17:00.142Z,83.60
2022-11-18T02:19:49.158Z,83.25
2022-11-18T02:22:52.160Z,82.93
2022-11-18T02:25:33.835Z,83.08
2022-11-18T02:28:18.035Z,83.38
2022-11-18T02:31:12.972Z,83.47
2022-11-18T02:33:54.850Z,82.44
2022-11-18T02:36:40.838Z,82.76
2022-11-18T02:39:17.807Z,83.18
2022-11-18T02:41:46.298Z,83.40
2022-11-18T02:44:16.015Z,83.41
2022-11-18T02:46:45.298Z,83.77
2022-11-18T02:49:21.568Z,84.18
2022-11-18T02:51:49.279Z,83.78
2022-11-18T02:54:17.305Z,83.83
2022-11-18T02:56:44.572Z,83.72
2022-11-18T02:59:11.079Z,83.42
2022-11-18T03:01:37.683Z,84.40
2022-11-18T03:04:04.272Z,84.56
2022-11-18T03:06:36.952Z,84.31
2022-11-18T03:09:14.734Z,84.45
2022-11-18T03:11:55.803Z,84.36
2022-11-18T03:14:51.447Z,85.07
2022-11-18T03:17:20.733Z,84.65
2022-11-18T03:20:03.267Z,85.11
2022-11-18T03:22:46.717Z,85.44
2022-11-18T03:25:23.909Z,86.14
2022-11-18T03:28:27.823Z,86.99
2022-11-18T03:30:59.129Z,87.16
2022-11-18T03:33:31.396Z,87.99
2022-11-18T03:35:58.965Z,88.56
2022-11-18T03:38:29.872Z,89.02
2022-11-18T03:41:00.867Z,89.45
2022-11-18T03:43:31.680Z,90.01
2022-11-18T03:46:04.995Z,90.99
2022-11-18T03:48:34.649Z,90.91
2022-11-18T03:51:06.551Z,91.11
2022-11-18T03:53:35.455Z,91.60
2022-11-18T03:56:17.727Z,92.02
2022-11-18T03:58:56.062Z,91.73
2022-11-18T04:01:34.723Z,91.18
2022-11-18T04:04:01.418Z,91.33
2022-11-18T04:06:43.130Z,91.88
2022-11-18T04:09:13.934Z,91.49
2022-11-18T04:12:03.136Z,91.22
2022-11-18T04:14:32.217Z,91.62
2022-11-18T04:16:58.762Z,90.94
2022-11-18T04:19:25.258Z,91.50
2022-11-18T04:21:51.786Z,91.41
2022-11-18T04:24:18.247Z,91.71
2022-11-18T04:26:44.840Z,91.86
2022-11-18T04:29:11.357Z,92.98
2022-11-18T04:31:37.848Z,94.76
2022-11-18T04:34:04.348Z,95.80
2022-11-18T04:36:30.778Z,96.96
2022-11-18T04:38:57.179Z,97.27
2022-11-18T04:41:43.845Z,96.90
2022-11-18T04:44:13.177Z,95.93
2022-11-18T04:46:43.625Z,96.76
2022-11-18T04:49:11.733Z,97.11
2022-11-18T04:51:38.147Z,96.32
2022-11-18T04:54:04.901Z,96.47
2022-11-18T04:56:31.665Z,97.14
2022-11-18T04:59:02.751Z,97.25
2022-11-18T05:01:29.906Z,98.10
2022-11-18T05:03:56.930Z,98.40
2022-11-18T05:06:23.854Z,98.53
2022-11-18T05:08:50.341Z,98.91
2022-11-18T05:11:35.797Z,98.79
2022-11-18T05:14:02.376Z,98.95
2022-11-18T05:16:28.927Z,98.90
2022-11-18T05:18:55.508Z,98.53
2022-11-18T05:21:21.916Z,98.11
2022-11-18T05:23:48.569Z,97.02
2022-11-18T05:26:15.206Z,96.90
2022-11-18T05:28:41.655Z,97.75
2022-11-18T05:31:09.599Z,97.06
2022-11-18T05:33:36.626Z,96.40
2022-11-18T05:36:11.081Z,96.29
2022-11-18T05:38:37.880Z,95.01
2022-11-18T05:41:05.037Z,95.41
2022-11-18T05:43:31.648Z,95.45
2022-11-18T05:45:58.877Z,95.35
2022-11-18T05:48:25.705Z,95.28
2022-11-18T05:50:54.067Z,95.06
2022-11-18T05:53:24.887Z,94.51
2022-11-18T05:55:57.566Z,93.97
2022-11-18T05:58:24.237Z,94.35
2022-11-18T06:00:52.775Z,94.40
2022-11-18T06:03:26.205Z,93.98
2022-11-18T06:05:58.587Z,93.40
2022-11-18T06:08:29.788Z,92.60
2022-11-18T06:10:56.328Z,92.05
2022-11-18T06:13:50.438Z,91.37
2022-11-18T06:16:18.929Z,91.62
2022-11-18T06:18:45.544Z,91.33
2022-11-18T06:21:12.111Z,91.71
2022-11-18T06:23:40.367Z,91.72
2022-11-18T06:26:07.881Z,91.37
2022-11-18T06:28:34.570Z,90.57
2022-11-18T06:31:00.996Z,90.68
2022-11-18T06:33:27.467Z,91.01
2022-11-18T06:35:54.584Z,91.53
2022-11-18T06:38:24.637Z,91.02
2022-11-18T06:40:51.881Z,91.83
2022-11-18T06:43:37.282Z,92.12
2022-11-18T06:46:24.258Z,92.30
2022-11-18T06:48:51.363Z,93.70
2022-11-18T06:51:18.214Z,94.10
2022-11-18T06:53:44.874Z,94.66
2022-11-18T06:56:13.863Z,93.86
2022-11-18T06:58:40.518Z,93.54
2022-11-18T07:01:17.919Z,92.76
2022-11-18T07:03:46.046Z,93.20
2022-11-18T07:06:15.076Z,92.42
2022-11-18T07:08:41.874Z,92.97
2022-11-18T07:11:11.409Z,92.40
2022-11-18T07:13:43.177Z,91.69
2022-11-18T07:16:13.014Z,91.10
2022-11-18T07:18:41.417Z,90.96
2022-11-18T07:21:10.328Z,90.32
2022-11-18T07:23:37.005Z,90.26
2022-11-18T07:26:04.008Z,90.72
2022-11-18T07:28:30.790Z,90.72
2022-11-18T07:31:05.223Z,90.58
2022-11-18T07:33:32.656Z,90.36
2022-11-18T07:36:04.585Z,90.29
2022-11-18T07:38:31.381Z,90.37
2022-11-18T07:41:04.734Z,89.50
2022-11-18T07:43:31.272Z,89.16
2022-11-18T07:45:57.812Z,88.96
2022-11-18T07:48:24.264Z,87.68
2022-11-18T07:50:52.388Z,87.57
2022-11-18T07:53:18.980Z,88.25
2022-11-18T07:55:45.832Z,87.79
2022-11-18T07:58:12.294Z,87.28
2022-11-18T08:00:38.755Z,86.64
2022-11-18T08:03:06.505Z,87.43
2022-11-18T08:05:33.090Z,85.95
2022-11-18T08:07:59.780Z,86.25
2022-11-18T08:10:26.184Z,87.44
2022-11-18T08:12:52.669Z,87.16
2022-11-18T08:15:19.187Z,87.10
2022-11-18T08:17:46.049Z,86.77
2022-11-18T08:20:12.589Z,86.04
2022-11-18T08:22:39.381Z,86.78
2022-11-18T08:25:06.339Z,87.24
2022-11-18T08:27:32.819Z,86.51
2022-11-18T08:29:59.307Z,87.02
2022-11-18T08:32:25.952Z,87.15
2022-11-18T08:34:52.673Z,86.12
2022-11-18T08:37:19.300Z,86.60
2022-11-18T08:39:46.125Z,86.75
2022-11-18T08:42:12.746Z,85.89
2022-11-18T08:44:39.300Z,87.28
2022-11-18T08:47:05.730Z,87.26
2022-11-18T08:49:32.719Z,87.22
2022-11-18T08:51:59.508Z,85.35
2022-11-18T08:54:25.940Z,84.87
2022-11-18T08:56:52.406Z,84.99
2022-11-18T08:59:19.344Z,84.37
2022-11-18T09:01:46.359Z,85.46
2022-11-18T09:04:12.911Z,86.37
2022-11-18T09:06:40.432Z,84.72
2022-11-18T09:09:08.227Z,83.33
2022-11-18T09:11:35.116Z,83.00
2022-11-18T09:16:48.795Z,83.10
2022-11-18T09:22:03.994Z,83.47
2022-11-18T09:24:30.675Z,82.18
2022-11-18T09:26:57.145Z,82.14
2022-11-18T09:29:26.205Z,82.43
2022-11-18T09:31:54.285Z,82.87
2022-11-18T09:34:21.488Z,82.49
2022-11-18T09:36:48.007Z,81.39
2022-11-18T09:39:14.671Z,80.68
2022-11-18T09:41:45.507Z,80.82
2022-11-18T09:44:36.679Z,79.78
2022-11-18T09:47:25.549Z,78.92
2022-11-18T09:49:55.287Z,79.93
2022-11-18T09:52:35.890Z,80.65
2022-11-18T09:55:11.753Z,80.58
2022-11-18T09:57:40.463Z,79.39
2022-11-18T10:00:14.854Z,79.54
2022-11-18T10:02:51.147Z,79.27
2022-11-18T10:05:24.093Z,79.66
2022-11-18T10:08:02.003Z,80.08
2022-11-18T10:10:40.042Z,79.77
2022-11-18T10:13:18.619Z,78.93
2022-11-18T10:16:18.114Z,79.69
2022-11-18T10:19:00.302Z,79.42
2022-11-18T10:21:49.680Z,78.43
2022-11-18T10:24:21.890Z,77.82
2022-11-18T10:26:58.460Z,77.70
2022-11-18T10:29:25.493Z,78.13
2022-11-18T10:32:12.914Z,77.09
2022-11-18T10:34:58.852Z,77.21
2022-11-18T10:40:27.440Z,75.50
2022-11-18T10:42:57.265Z,74.60
2022-11-18T10:45:23.617Z,75.35
2022-11-18T10:48:09.602Z,75.40
2022-11-18T10:50:44.499Z,75.70
2022-11-18T10:53:33.647Z,75.22
2022-11-18T10:56:05.106Z,74.37
2022-11-18T10:58:32.904Z,74.26
2022-11-18T11:01:08.049Z,73.71
2022-11-18T11:03:42.508Z,74.37
2022-11-18T11:06:27.109Z,73.66
2022-11-18T11:08:56.478Z,73.74
2022-11-18T11:11:31.543Z,73.79
2022-11-18T11:14:22.470Z,74.23
2022-11-18T11:17:02.837Z,73.73
2022-11-18T11:19:36.808Z,73.88
2022-11-18T11:22:05.120Z,72.15
2022-11-18T11:24:31.567Z,72.12
2022-11-18T11:30:14.894Z,71.32
2022-11-18T11:33:22.690Z,71.82
2022-11-18T11:36:18.153Z,72.18
2022-11-18T11:39:01.314Z,72.53
2022-11-18T11:41:38.030Z,72.41
2022-11-18T11:44:07.501Z,76.45
2022-11-18T11:47:09.150Z,73.17
2022-11-18T11:49:42.840Z,73.44
2022-11-18T11:52:17.149Z,75.51
2022-11-18T11:54:49.447Z,74.60
2022-11-18T11:57:53.710Z,74.76
2022-11-18T12:00:20.531Z,75.45
2022-11-18T12:03:38.896Z,75.68
2022-11-18T12:06:07.513Z,75.51
2022-11-18T12:08:34.145Z,74.60
2022-11-18T12:11:37.744Z,75.40
2022-11-18T12:14:13.482Z,74.92
2022-11-18T12:16:50.236Z,75.00
2022-11-18T12:19:19.420Z,74.34
2022-11-18T12:21:46.218Z,72.42
2022-11-18T12:24:34.455Z,73.08
2022-11-18T12:27:06.276Z,72.70
2022-11-18T12:29:43.628Z,70.11
2022-11-18T12:32:42.210Z,71.42
2022-11-18T12:35:11.564Z,71.72
2022-11-18T12:37:44.095Z,71.75
2022-11-18T12:40:30.803Z,72.26
2022-11-18T12:43:15.704Z,73.23
2022-11-18T12:45:45.926Z,73.85
2022-11-18T12:48:27.730Z,76.04
2022-11-18T12:50:56.769Z,76.67
2022-11-18T12:53:42.810Z,76.73
2022-11-18T12:56:22.283Z,73.67
2022-11-18T12:58:54.616Z,73.10
2022-11-18T13:01:26.743Z,73.28
2022-11-18T13:04:06.941Z,72.89
2022-11-18T13:06:35.007Z,73.52
2022-11-18T13:09:03.613Z,75.25
2022-11-18T13:11:47.513Z,74.71
2022-11-18T13:15:08.406Z,74.58
2022-11-18T13:17:52.496Z,72.48
2022-11-18T13:20:35.441Z,73.48
2022-11-18T13:23:24.409Z,72.65
2022-11-18T13:25:51.059Z,73.12
2022-11-18T13:28:37.677Z,73.76
2022-11-18T13:31:19.640Z,74.61
2022-11-18T13:33:46.413Z,75.64
2022-11-18T13:36:17.855Z,76.52
2022-11-18T13:39:02.022Z,77.50
2022-11-18T13:41:33.739Z,78.55
2022-11-18T13:44:17.854Z,78.65
2022-11-18T13:46:47.816Z,79.69
2022-11-18T13:49:18.734Z,80.64
2022-11-18T13:51:46.252Z,81.12
2022-11-18T13:54:20.973Z,81.38
2022-11-18T13:56:47.707Z,82.01
2022-11-18T13:59:18.572Z,81.52
2022-11-18T14:01:46.199Z,81.02
2022-11-18T14:04:21.633Z,81.40
2022-11-18T14:06:49.487Z,82.37
2022-11-18T14:09:27.039Z,82.51
2022-11-18T14:12:02.952Z,84.10
2022-11-18T14:14:37.155Z,83.82
2022-11-18T14:17:22.875Z,83.73
2022-11-18T14:19:51.647Z,84.65
2022-11-18T14:22:25.778Z,84.80
2022-11-18T14:24:59.038Z,85.34
2022-11-18T14:27:40.217Z,86.34
2022-11-18T14:30:28.891Z,87.00
2022-11-18T14:33:15.700Z,86.51
2022-11-18T14:35:51.982Z,87.66
2022-11-18T14:38:57.534Z,87.46
2022-11-18T14:41:14.444Z,86.95
2022-11-18T14:43:41.543Z,86.59
2022-11-18T14:46:14.403Z,86.60
2022-11-18T14:48:41.082Z,87.15
2022-11-18T14:51:10.392Z,86.91
2022-11-18T14:53:36.864Z,87.30
2022-11-18T14:56:04.369Z,88.48
2022-11-18T14:58:30.875Z,89.02
2022-11-18T15:00:57.460Z,90.14
2022-11-18T15:03:24.200Z,90.30
2022-11-18T15:05:50.905Z,90.92
2022-11-18T15:08:17.346Z,91.65
2022-11-18T15:10:43.948Z,92.56
2022-11-18T15:13:10.500Z,92.98
2022-11-18T15:15:36.987Z,93.77
2022-11-18T15:18:03.538Z,94.37
2022-11-18T15:20:30.252Z,93.98
2022-11-18T15:22:56.768Z,94.15
2022-11-18T15:25:23.456Z,94.73
2022-11-18T15:27:50.032Z,95.35
2022-11-18T15:30:16.559Z,94.09
2022-11-18T15:32:43.190Z,93.41
2022-11-18T15:35:11.826Z,92.60
2022-11-18T15:37:38.594Z,93.70
2022-11-18T15:40:05.338Z,92.78
2022-11-18T15:42:32.042Z,92.66
2022-11-18T15:44:58.451Z,92.94
2022-11-18T15:47:25.177Z,92.79
2022-11-18T15:49:51.764Z,93.11
2022-11-18T15:52:18.966Z,92.82
2022-11-18T15:54:45.549Z,93.06
2022-11-18T15:57:12.213Z,93.26
2022-11-18T15:59:38.637Z,93.02
2022-11-18T16:02:05.116Z,94.12
2022-11-18T16:04:31.763Z,93.71
2022-11-18T16:07:00.230Z,93.12
2022-11-18T16:09:46.868Z,93.59
2022-11-18T16:12:31.845Z,92.71
2022-11-18T16:15:18.523Z,93.19
2022-11-18T16:17:45.019Z,92.38
2022-11-18T16:20:12.094Z,91.99
2022-11-18T16:22:38.505Z,91.38
2022-11-18T16:25:05.274Z,91.61
2022-11-18T16:27:31.980Z,91.62
2022-11-18T16:29:58.738Z,91.98
2022-11-18T16:32:25.211Z,92.78
2022-11-18T16:34:55.268Z,93.55
2022-11-18T16:37:24.509Z,93.96
2022-11-18T16:39:50.982Z,93.59
2022-11-18T16:42:17.577Z,93.91
2022-11-18T16:44:44.148Z,94.04
2022-11-18T16:47:15.004Z,93.72
2022-11-18T16:49:42.136Z,94.17
2022-11-18T16:52:09.271Z,94.76
2022-11-18T16:54:41.013Z,94.51
2022-11-18T16:57:09.654Z,95.09
2022-11-18T16:59:36.796Z,94.31
2022-11-18T17:02:03.726Z,94.04
2022-11-18T17:04:30.672Z,94.15
2022-11-18T17:06:59.916Z,94.17
2022-11-18T17:09:26.859Z,94.33
2022-11-18T17:11:55.350Z,93.19
2022-11-18T17:14:23.168Z,92.10
2022-11-18T17:16:49.976Z,92.80
2022-11-18T17:19:18.828Z,93.42
2022-11-18T17:21:46.019Z,92.29
2022-11-18T17:24:17.311Z,93.50
2022-11-18T17:26:44.242Z,94.16
2022-11-18T17:29:12.464Z,93.88
2022-11-18T17:31:39.520Z,93.11
2022-11-18T17:34:06.621Z,93.53
2022-11-18T17:36:33.245Z,91.93
2022-11-18T17:39:00.558Z,92.10
2022-11-18T17:41:46.937Z,92.76
2022-11-18T17:44:15.721Z,93.15
2022-11-18T17:46:42.531Z,93.24
2022-11-18T17:49:18.005Z,93.86
2022-11-18T17:51:46.042Z,94.33
2022-11-18T17:54:14.234Z,94.54
2022-11-18T17:56:40.880Z,93.07
2022-11-18T17:59:07.490Z,92.25
2022-11-18T18:01:34.235Z,92.31
2022-11-18T18:04:00.719Z,91.78
2022-11-18T18:06:27.308Z,91.66
2022-11-18T18:08:57.323Z,91.29
2022-11-18T18:11:25.500Z,90.99
2022-11-18T18:14:11.146Z,90.74
2022-11-18T18:16:39.210Z,90.08
2022-11-18T18:19:07.534Z,89.52
2022-11-18T18:21:35.669Z,89.44
2022-11-18T18:24:03.547Z,88.78
2022-11-18T18:26:31.949Z,89.24
2022-11-18T18:28:59.950Z,87.47
2022-11-18T18:31:26.749Z,88.46
2022-11-18T18:33:53.343Z,87.63
2022-11-18T18:36:20.555Z,86.86
2022-11-18T18:38:47.447Z,86.94
2022-11-18T18:41:19.903Z,87.28
2022-11-18T18:43:47.115Z,87.58
2022-11-18T18:46:34.323Z,87.61
2022-11-18T18:49:22.354Z,87.36
2022-11-18T18:51:55.638Z,87.74
2022-11-18T18:54:22.359Z,87.15
2022-11-18T18:56:49.080Z,86.68
2022-11-18T18:59:15.635Z,87.07
2022-11-18T19:01:42.260Z,87.73
2022-11-18T19:04:13.005Z,85.98
2022-11-18T19:09:26.898Z,85.99
2022-11-18T19:12:12.479Z,85.25
2022-11-18T19:14:39.604Z,86.42
2022-11-18T19:17:10.633Z,85.35
2022-11-18T19:19:56.569Z,84.60
2022-11-18T19:22:23.192Z,83.75
2022-11-18T19:27:38.793Z,83.42
2022-11-18T19:30:07.295Z,83.36
2022-11-18T19:32:40.823Z,82.64
2022-11-18T19:35:08.265Z,81.99
2022-11-18T19:37:34.946Z,82.69
2022-11-18T19:40:07.103Z,81.65
2022-11-18T19:42:37.653Z,81.86
2022-11-18T19:45:05.152Z,82.49
2022-11-18T19:47:32.175Z,83.21
2022-11-18T19:49:58.693Z,83.36
2022-11-18T19:52:25.167Z,83.85
2022-11-18T19:54:51.754Z,83.40
2022-11-18T19:57:18.257Z,83.13
2022-11-18T19:59:45.872Z,83.09
2022-11-18T20:02:12.831Z,83.75
2022-11-18T20:04:39.356Z,83.83
2022-11-18T20:07:06.206Z,83.53
2022-11-18T20:09:32.810Z,84.14
2022-11-18T20:11:59.389Z,84.16
2022-11-18T20:14:25.831Z,84.40
2022-11-18T20:16:52.416Z,84.23
2022-11-18T20:19:19.183Z,83.85
2022-11-18T20:21:47.960Z,83.36
2022-11-18T20:24:16.604Z,83.40
2022-11-18T20:26:43.269Z,82.72
2022-11-18T20:29:10.221Z,82.26
2022-11-18T20:31:37.171Z,82.11
2022-11-18T20:34:04.197Z,82.17
2022-11-18T20:36:33.237Z,81.47
2022-11-18T20:39:05.073Z,81.48
2022-11-18T20:41:32.448Z,81.05
2022-11-18T20:44:01.058Z,81.38
2022-11-18T20:46:27.685Z,82.72
2022-11-18T20:48:57.807Z,82.36
2022-11-18T20:51:26.835Z,81.93
2022-11-18T20:53:55.455Z,81.38
2022-11-18T20:56:25.680Z,81.22
2022-11-18T20:58:52.461Z,81.24
2022-11-18T21:01:23.101Z,81.54
2022-11-18T21:03:52.764Z,80.77
2022-11-18T21:06:19.998Z,79.58
2022-11-18T21:08:46.571Z,79.06
2022-11-18T21:11:13.680Z,79.88
2022-11-18T21:13:59.670Z,78.99
2022-11-18T21:16:27.145Z,79.02
2022-11-18T21:18:53.674Z,78.85
2022-11-18T21:21:38.876Z,79.27
2022-11-18T21:24:05.691Z,79.00
2022-11-18T21:26:34.170Z,79.53
2022-11-18T21:29:01.947Z,79.51
2022-11-18T21:31:28.877Z,79.84
2022-11-18T21:33:56.064Z,80.61
2022-11-18T21:36:23.606Z,80.82
2022-11-18T21:38:50.467Z,81.27
2022-11-18T21:41:17.147Z,80.87
2022-11-18T21:44:04.518Z,81.53
2022-11-18T21:46:31.032Z,82.77
2022-11-18T21:49:00.249Z,83.05
2022-11-18T21:51:27.244Z,83.55
2022-11-18T21:53:56.346Z,83.97
2022-11-18T21:56:25.275Z,84.09
2022-11-18T21:58:52.636Z,83.41
2022-11-18T22:01:21.511Z,84.30
2022-11-18T22:03:54.986Z,84.61
2022-11-18T22:06:24.208Z,85.27
2022-11-18T22:08:51.341Z,85.59
2022-11-18T22:11:18.243Z,86.29
2022-11-18T22:13:44.772Z,85.54
2022-11-18T22:16:13.397Z,86.36
2022-11-18T22:18:42.287Z,86.27
2022-11-18T22:21:12.220Z,85.80
2022-11-18T22:23:38.783Z,85.45
2022-11-18T22:26:15.061Z,86.60
2022-11-18T22:28:41.911Z,85.42
2022-11-18T22:31:11.868Z,85.75
2022-11-18T22:33:38.492Z,85.83
2022-11-18T22:36:10.071Z,85.49
2022-11-18T22:38:36.997Z,86.07
2022-11-18T22:41:06.044Z,86.40
2022-11-18T22:43:33.549Z,85.58
2022-11-18T22:46:08.769Z,85.96
2022-11-18T22:48:35.549Z,86.14
2022-11-18T22:51:04.261Z,85.98
2022-11-18T22:53:31.803Z,86.17
2022-11-18T22:56:09.134Z,85.81
2022-11-18T22:58:35.554Z,86.13
2022-11-18T23:01:03.929Z,86.10
2022-11-18T23:03:31.066Z,86.63
2022-11-18T23:05:58.002Z,86.72
2022-11-18T23:08:24.525Z,87.33
2022-11-18T23:10:51.268Z,87.24
2022-11-18T23:13:36.928Z,86.44
2022-11-18T23:16:03.491Z,87.56
2022-11-18T23:18:30.151Z,88.02
2022-11-18T23:21:01.053Z,87.39
2022-11-18T23:23:28.548Z,86.94
2022-11-18T23:25:55.487Z,86.67
2022-11-18T23:28:22.121Z,86.81
2022-11-18T23:30:48.777Z,87.16
2022-11-18T23:33:15.309Z,87.27
2022-11-18T23:35:41.782Z,87.22
2022-11-18T23:38:08.207Z,87.20
2022-11-18T23:40:34.784Z,87.06
2022-11-18T23:43:01.234Z,86.51
2022-11-18T23:45:27.638Z,86.73
2022-11-18T23:47:54.627Z,86.50
2022-11-18T23:50:21.051Z,86.13
2022-11-18T23:52:47.555Z,86.15
2022-11-18T23:55:14.009Z,85.84
2022-11-18T23:57:40.437Z,84.88
